sensor_id;sensor_type;location;lat;lon;timestamp;pressure;altitude;pressure_sealevel;temperature;humidity
42105;BME280;70664;51.472;5.712;2024-03-29T00:01:12;99021.84;;;18.03;60.99
42105;BME280;70664;51.472;5.712;2024-03-29T00:03:37;99008.09;;;18.01;60.88
42105;BME280;70664;51.472;5.712;2024-03-29T00:06:03;99002.16;;;17.99;61.03
42105;BME280;70664;51.472;5.712;2024-03-29T00:08:29;99004.69;;;18.00;60.80
42105;BME280;70664;51.472;5.712;2024-03-29T00:10:54;98999.47;;;18.00;60.79
42105;BME280;70664;51.472;5.712;2024-03-29T00:13:20;98984.19;;;17.94;61.08
42105;BME280;70664;51.472;5.712;2024-03-29T00:15:46;98996.38;;;17.93;60.94
42105;BME280;70664;51.472;5.712;2024-03-29T00:18:12;98982.44;;;17.94;60.74
42105;BME280;70664;51.472;5.712;2024-03-29T00:20:37;98980.59;;;17.96;60.66
42105;BME280;70664;51.472;5.712;2024-03-29T00:23:03;98993.66;;;17.95;60.93
42105;BME280;70664;51.472;5.712;2024-03-29T00:25:29;99004.91;;;17.95;61.00
42105;BME280;70664;51.472;5.712;2024-03-29T00:27:55;99006.66;;;17.95;61.07
42105;BME280;70664;51.472;5.712;2024-03-29T00:30:20;99021.69;;;17.90;60.96
42105;BME280;70664;51.472;5.712;2024-03-29T00:32:46;99009.53;;;17.90;60.77
42105;BME280;70664;51.472;5.712;2024-03-29T00:35:12;99019.19;;;17.88;60.73
42105;BME280;70664;51.472;5.712;2024-03-29T00:37:40;99028.66;;;17.89;60.93
42105;BME280;70664;51.472;5.712;2024-03-29T00:40:06;99026.13;;;17.88;61.08
42105;BME280;70664;51.472;5.712;2024-03-29T00:42:32;99008.69;;;17.90;60.75
42105;BME280;70664;51.472;5.712;2024-03-29T00:44:58;99021.03;;;17.86;60.79
42105;BME280;70664;51.472;5.712;2024-03-29T00:47:23;99024.81;;;17.80;60.79
42105;BME280;70664;51.472;5.712;2024-03-29T00:49:49;99021.19;;;17.83;60.84
42105;BME280;70664;51.472;5.712;2024-03-29T00:52:15;99024.81;;;17.80;61.04
42105;BME280;70664;51.472;5.712;2024-03-29T00:54:41;99024.81;;;17.80;61.14
42105;BME280;70664;51.472;5.712;2024-03-29T00:57:07;99025.66;;;17.81;61.03
42105;BME280;70664;51.472;5.712;2024-03-29T00:59:38;99028.34;;;17.79;60.83
42105;BME280;70664;51.472;5.712;2024-03-29T01:02:04;99020.72;;;17.76;60.69
42105;BME280;70664;51.472;5.712;2024-03-29T01:04:29;99012.16;;;17.74;60.97
42105;BME280;70664;51.472;5.712;2024-03-29T01:06:55;99020.94;;;17.72;61.05
42105;BME280;70664;51.472;5.712;2024-03-29T01:09:21;99033.13;;;17.71;61.15
42105;BME280;70664;51.472;5.712;2024-03-29T01:11:47;99024.66;;;17.67;60.93
42105;BME280;70664;51.472;5.712;2024-03-29T01:14:13;99029.88;;;17.67;61.03
42105;BME280;70664;51.472;5.712;2024-03-29T01:16:39;99029.13;;;17.65;60.86
42105;BME280;70664;51.472;5.712;2024-03-29T01:19:04;99018.88;;;17.62;61.29
42105;BME280;70664;51.472;5.712;2024-03-29T01:21:31;99013.59;;;17.64;61.17
42105;BME280;70664;51.472;5.712;2024-03-29T01:23:56;99014.59;;;17.61;60.95
42105;BME280;70664;51.472;5.712;2024-03-29T01:26:22;98992.13;;;17.60;60.99
42105;BME280;70664;51.472;5.712;2024-03-29T01:28:48;99003.47;;;17.59;61.00
42105;BME280;70664;51.472;5.712;2024-03-29T01:31:14;98992.47;;;17.54;61.21
42105;BME280;70664;51.472;5.712;2024-03-29T01:33:40;98999.34;;;17.55;61.00
42105;BME280;70664;51.472;5.712;2024-03-29T01:36:09;98994.25;;;17.54;61.35
42105;BME280;70664;51.472;5.712;2024-03-29T01:38:36;98990.03;;;17.51;61.09
42105;BME280;70664;51.472;5.712;2024-03-29T01:41:02;98990.13;;;17.49;61.64
42105;BME280;70664;51.472;5.712;2024-03-29T01:43:28;98985.94;;;17.47;61.39
42105;BME280;70664;51.472;5.712;2024-03-29T01:45:55;98975.53;;;17.47;61.38
42105;BME280;70664;51.472;5.712;2024-03-29T01:48:25;98959.19;;;17.45;61.28
42105;BME280;70664;51.472;5.712;2024-03-29T01:50:56;98948.81;;;17.45;61.58
42105;BME280;70664;51.472;5.712;2024-03-29T01:53:22;98949.94;;;17.41;61.53
42105;BME280;70664;51.472;5.712;2024-03-29T01:55:50;98962.97;;;17.39;61.73
42105;BME280;70664;51.472;5.712;2024-03-29T01:58:16;98959.47;;;17.40;61.36
42105;BME280;70664;51.472;5.712;2024-03-29T02:00:52;98962.97;;;17.39;61.39
42105;BME280;70664;51.472;5.712;2024-03-29T02:03:21;98972.72;;;17.35;61.37
42105;BME280;70664;51.472;5.712;2024-03-29T02:05:49;98965.84;;;17.34;61.37
42105;BME280;70664;51.472;5.712;2024-03-29T02:08:15;98953.78;;;17.33;61.67
42105;BME280;70664;51.472;5.712;2024-03-29T02:10:43;98959.03;;;17.32;61.38
42105;BME280;70664;51.472;5.712;2024-03-29T02:13:09;98970.34;;;17.31;61.75
42105;BME280;70664;51.472;5.712;2024-03-29T02:15:35;98983.44;;;17.29;61.62
42105;BME280;70664;51.472;5.712;2024-03-29T02:18:01;98986.03;;;17.29;61.75
42105;BME280;70664;51.472;5.712;2024-03-29T02:20:27;98991.31;;;17.28;61.92
42105;BME280;70664;51.472;5.712;2024-03-29T02:23:26;98987.03;;;17.27;61.37
42105;BME280;70664;51.472;5.712;2024-03-29T02:25:52;99001.78;;;17.26;61.56
42105;BME280;70664;51.472;5.712;2024-03-29T02:28:19;99002.69;;;17.25;61.62
42105;BME280;70664;51.472;5.712;2024-03-29T02:30:45;98995.91;;;17.22;61.86
42105;BME280;70664;51.472;5.712;2024-03-29T02:33:11;99005.47;;;17.22;61.88
42105;BME280;70664;51.472;5.712;2024-03-29T02:35:37;99011.50;;;17.22;61.53
42105;BME280;70664;51.472;5.712;2024-03-29T02:38:03;98993.47;;;17.19;61.60
42105;BME280;70664;51.472;5.712;2024-03-29T02:40:28;98991.72;;;17.20;61.76
42105;BME280;70664;51.472;5.712;2024-03-29T02:42:54;99002.25;;;17.17;61.64
42105;BME280;70664;51.472;5.712;2024-03-29T02:45:20;99008.38;;;17.16;61.56
42105;BME280;70664;51.472;5.712;2024-03-29T02:47:45;99013.56;;;17.16;61.92
42105;BME280;70664;51.472;5.712;2024-03-29T02:50:16;99006.78;;;17.13;62.01
42105;BME280;70664;51.472;5.712;2024-03-29T02:52:42;99015.50;;;17.12;62.10
42105;BME280;70664;51.472;5.712;2024-03-29T02:55:08;99028.47;;;17.12;61.85
42105;BME280;70664;51.472;5.712;2024-03-29T02:57:37;99018.19;;;17.11;62.17
42105;BME280;70664;51.472;5.712;2024-03-29T03:00:08;99014.75;;;17.10;61.63
42105;BME280;70664;51.472;5.712;2024-03-29T03:02:41;99009.66;;;17.09;61.60
42105;BME280;70664;51.472;5.712;2024-03-29T03:05:07;99020.09;;;17.07;62.11
42105;BME280;70664;51.472;5.712;2024-03-29T03:07:34;99026.97;;;17.08;61.87
42105;BME280;70664;51.472;5.712;2024-03-29T03:10:19;99022.78;;;17.05;61.67
42105;BME280;70664;51.472;5.712;2024-03-29T03:13:04;99024.53;;;17.05;61.79
42105;BME280;70664;51.472;5.712;2024-03-29T03:15:30;99025.53;;;17.02;62.07
42105;BME280;70664;51.472;5.712;2024-03-29T03:17:55;99023.75;;;17.03;61.78
42105;BME280;70664;51.472;5.712;2024-03-29T03:20:21;99025.53;;;17.02;61.86
42105;BME280;70664;51.472;5.712;2024-03-29T03:22:51;99027.28;;;17.02;61.78
42105;BME280;70664;51.472;5.712;2024-03-29T03:25:16;99025.59;;;17.01;62.29
42105;BME280;70664;51.472;5.712;2024-03-29T03:27:42;99033.59;;;16.98;62.03
42105;BME280;70664;51.472;5.712;2024-03-29T03:30:09;99027.53;;;16.97;62.23
42105;BME280;70664;51.472;5.712;2024-03-29T03:32:35;99024.03;;;16.98;61.86
42105;BME280;70664;51.472;5.712;2024-03-29T03:35:00;99020.66;;;16.96;62.33
42105;BME280;70664;51.472;5.712;2024-03-29T03:37:26;99015.53;;;16.95;61.81
42105;BME280;70664;51.472;5.712;2024-03-29T03:39:52;99021.66;;;16.93;62.35
42105;BME280;70664;51.472;5.712;2024-03-29T03:42:17;99032.03;;;16.93;62.07
42105;BME280;70664;51.472;5.712;2024-03-29T03:44:43;99029.50;;;16.92;62.19
42105;BME280;70664;51.472;5.712;2024-03-29T03:47:09;99032.09;;;16.92;61.90
42105;BME280;70664;51.472;5.712;2024-03-29T03:49:35;99016.59;;;16.90;61.96
42105;BME280;70664;51.472;5.712;2024-03-29T03:52:00;99022.72;;;16.89;62.25
42105;BME280;70664;51.472;5.712;2024-03-29T03:54:26;99031.25;;;16.91;62.04
42105;BME280;70664;51.472;5.712;2024-03-29T03:56:52;99033.16;;;16.88;61.80
42105;BME280;70664;51.472;5.712;2024-03-29T03:59:18;99031.41;;;16.88;62.12
42105;BME280;70664;51.472;5.712;2024-03-29T04:01:43;99053.19;;;16.86;62.10
42105;BME280;70664;51.472;5.712;2024-03-29T04:04:09;99052.44;;;16.84;62.21
42105;BME280;70664;51.472;5.712;2024-03-29T04:06:35;99043.78;;;16.83;62.44
42105;BME280;70664;51.472;5.712;2024-03-29T04:09:01;99054.19;;;16.83;61.93
42105;BME280;70664;51.472;5.712;2024-03-29T04:11:26;99040.44;;;16.81;62.47
42105;BME280;70664;51.472;5.712;2024-03-29T04:13:52;99063.78;;;16.81;62.33
42105;BME280;70664;51.472;5.712;2024-03-29T04:16:18;99050.06;;;16.79;62.37
42105;BME280;70664;51.472;5.712;2024-03-29T04:18:44;99055.25;;;16.79;62.33
42105;BME280;70664;51.472;5.712;2024-03-29T04:21:10;99079.47;;;16.80;62.47
42105;BME280;70664;51.472;5.712;2024-03-29T04:23:36;99069.28;;;16.75;62.38
42105;BME280;70664;51.472;5.712;2024-03-29T04:26:02;99063.94;;;16.78;62.35
42105;BME280;70664;51.472;5.712;2024-03-29T04:28:28;99054.56;;;16.75;62.46
42105;BME280;70664;51.472;5.712;2024-03-29T04:33:21;99040.06;;;16.71;62.24
42105;BME280;70664;51.472;5.712;2024-03-29T04:35:58;99034.06;;;16.71;62.50
42105;BME280;70664;51.472;5.712;2024-03-29T04:38:24;99041.00;;;16.70;62.68
42105;BME280;70664;51.472;5.712;2024-03-29T04:40:52;99058.34;;;16.70;62.43
42105;BME280;70664;51.472;5.712;2024-03-29T04:43:20;99054.13;;;16.67;62.84
42105;BME280;70664;51.472;5.712;2024-03-29T04:45:46;99040.16;;;16.70;62.73
42105;BME280;70664;51.472;5.712;2024-03-29T04:48:12;99045.41;;;16.68;62.79
42105;BME280;70664;51.472;5.712;2024-03-29T04:50:38;99051.53;;;16.67;62.58
42105;BME280;70664;51.472;5.712;2024-03-29T04:53:05;99045.50;;;16.67;62.35
42105;BME280;70664;51.472;5.712;2024-03-29T04:55:31;99044.75;;;16.65;62.64
42105;BME280;70664;51.472;5.712;2024-03-29T04:57:57;99049.09;;;16.64;62.56
42105;BME280;70664;51.472;5.712;2024-03-29T05:00:22;99046.47;;;16.64;62.52
42105;BME280;70664;51.472;5.712;2024-03-29T05:02:48;99045.66;;;16.63;62.47
42105;BME280;70664;51.472;5.712;2024-03-29T05:05:14;99040.53;;;16.62;62.61
42105;BME280;70664;51.472;5.712;2024-03-29T05:07:40;99026.66;;;16.63;62.70
42105;BME280;70664;51.472;5.712;2024-03-29T05:10:06;99025.06;;;16.60;62.60
42105;BME280;70664;51.472;5.712;2024-03-29T05:12:33;99013.91;;;16.58;62.69
42105;BME280;70664;51.472;5.712;2024-03-29T05:14:59;99020.19;;;16.54;62.54
42105;BME280;70664;51.472;5.712;2024-03-29T05:17:25;99020.88;;;16.58;62.59
42105;BME280;70664;51.472;5.712;2024-03-29T05:19:53;99016.59;;;16.57;63.03
42105;BME280;70664;51.472;5.712;2024-03-29T05:22:19;99034.75;;;16.57;62.71
42105;BME280;70664;51.472;5.712;2024-03-29T05:24:45;99030.50;;;16.56;63.03
42105;BME280;70664;51.472;5.712;2024-03-29T05:27:14;99028.88;;;16.53;62.84
42105;BME280;70664;51.472;5.712;2024-03-29T05:29:40;99018.59;;;16.52;62.82
42105;BME280;70664;51.472;5.712;2024-03-29T05:32:07;99027.28;;;16.51;62.31
42105;BME280;70664;51.472;5.712;2024-03-29T05:34:33;99027.34;;;16.49;62.53
42105;BME280;70664;51.472;5.712;2024-03-29T05:36:59;99021.34;;;16.48;62.67
42105;BME280;70664;51.472;5.712;2024-03-29T05:39:24;99016.91;;;16.51;63.09
42105;BME280;70664;51.472;5.712;2024-03-29T05:41:50;99014.38;;;16.49;62.94
42105;BME280;70664;51.472;5.712;2024-03-29T05:44:16;99018.66;;;16.50;62.73
42105;BME280;70664;51.472;5.712;2024-03-29T05:46:43;99026.59;;;16.47;62.88
42105;BME280;70664;51.472;5.712;2024-03-29T05:49:09;99033.69;;;16.43;62.78
42105;BME280;70664;51.472;5.712;2024-03-29T05:51:34;99031.94;;;16.44;63.04
42105;BME280;70664;51.472;5.712;2024-03-29T05:54:01;99029.25;;;16.45;62.74
42105;BME280;70664;51.472;5.712;2024-03-29T05:56:29;99038.13;;;16.41;63.18
42105;BME280;70664;51.472;5.712;2024-03-29T05:58:55;99045.97;;;16.40;63.06
42105;BME280;70664;51.472;5.712;2024-03-29T06:01:21;99046.75;;;16.42;62.96
42105;BME280;70664;51.472;5.712;2024-03-29T06:03:51;99049.41;;;16.40;63.10
42105;BME280;70664;51.472;5.712;2024-03-29T06:06:20;99047.81;;;16.38;62.91
42105;BME280;70664;51.472;5.712;2024-03-29T06:08:50;99056.34;;;16.40;63.14
42105;BME280;70664;51.472;5.712;2024-03-29T06:11:16;99059.91;;;16.37;63.39
42105;BME280;70664;51.472;5.712;2024-03-29T06:13:41;99071.22;;;16.36;62.92
42105;BME280;70664;51.472;5.712;2024-03-29T06:16:25;99068.63;;;16.36;63.17
42105;BME280;70664;51.472;5.712;2024-03-29T06:19:10;99058.34;;;16.35;63.18
42105;BME280;70664;51.472;5.712;2024-03-29T06:21:36;99059.16;;;16.35;63.18
42105;BME280;70664;51.472;5.712;2024-03-29T06:24:10;99056.66;;;16.33;62.87
42105;BME280;70664;51.472;5.712;2024-03-29T06:26:40;99052.44;;;16.31;62.99
42105;BME280;70664;51.472;5.712;2024-03-29T06:29:07;99044.75;;;16.29;63.11
42105;BME280;70664;51.472;5.712;2024-03-29T06:31:36;99041.16;;;16.32;63.00
42105;BME280;70664;51.472;5.712;2024-03-29T06:34:02;99040.41;;;16.30;63.08
42105;BME280;70664;51.472;5.712;2024-03-29T06:36:28;99047.34;;;16.29;63.16
42105;BME280;70664;51.472;5.712;2024-03-29T06:38:56;99050.78;;;16.30;62.96
42105;BME280;70664;51.472;5.712;2024-03-29T06:41:21;99047.34;;;16.29;63.12
42105;BME280;70664;51.472;5.712;2024-03-29T06:43:47;99043.22;;;16.25;62.95
42105;BME280;70664;51.472;5.712;2024-03-29T06:46:14;99038.03;;;16.25;63.16
42105;BME280;70664;51.472;5.712;2024-03-29T06:48:40;99046.56;;;16.27;63.10
42105;BME280;70664;51.472;5.712;2024-03-29T06:51:06;99034.63;;;16.25;63.28
42105;BME280;70664;51.472;5.712;2024-03-29T06:53:32;99038.94;;;16.24;63.27
42105;BME280;70664;51.472;5.712;2024-03-29T06:56:00;99026.75;;;16.26;63.23
42105;BME280;70664;51.472;5.712;2024-03-29T06:58:27;99027.81;;;16.22;63.39
42105;BME280;70664;51.472;5.712;2024-03-29T07:00:53;99043.38;;;16.22;63.51
42105;BME280;70664;51.472;5.712;2024-03-29T07:03:19;99053.72;;;16.22;63.45
42105;BME280;70664;51.472;5.712;2024-03-29T07:05:47;99031.31;;;16.21;63.25
42105;BME280;70664;51.472;5.712;2024-03-29T07:08:13;99039.19;;;16.20;63.25
42105;BME280;70664;51.472;5.712;2024-03-29T07:10:39;99041.69;;;16.21;63.37
42105;BME280;70664;51.472;5.712;2024-03-29T07:13:07;99038.31;;;16.19;63.31
42105;BME280;70664;51.472;5.712;2024-03-29T07:15:33;99061.50;;;16.22;63.64
42105;BME280;70664;51.472;5.712;2024-03-29T07:18:02;99052.16;;;16.20;63.19
42105;BME280;70664;51.472;5.712;2024-03-29T07:20:31;99062.50;;;16.20;63.50
42105;BME280;70664;51.472;5.712;2024-03-29T07:22:57;99066.94;;;16.17;63.21
42105;BME280;70664;51.472;5.712;2024-03-29T07:25:23;99078.13;;;16.18;63.11
42105;BME280;70664;51.472;5.712;2024-03-29T07:27:49;99069.63;;;16.16;63.18
42105;BME280;70664;51.472;5.712;2024-03-29T07:30:16;99072.22;;;16.16;63.24
42105;BME280;70664;51.472;5.712;2024-03-29T07:32:42;99084.31;;;16.15;63.22
42105;BME280;70664;51.472;5.712;2024-03-29T07:35:08;99080.03;;;16.14;63.69
42105;BME280;70664;51.472;5.712;2024-03-29T07:37:34;99091.28;;;16.15;63.43
42105;BME280;70664;51.472;5.712;2024-03-29T07:39:59;99086.91;;;16.15;63.39
42105;BME280;70664;51.472;5.712;2024-03-29T07:42:25;99069.66;;;16.14;63.44
42105;BME280;70664;51.472;5.712;2024-03-29T07:44:51;99066.03;;;16.18;63.17
42105;BME280;70664;51.472;5.712;2024-03-29T07:47:18;99078.97;;;16.18;63.35
42105;BME280;70664;51.472;5.712;2024-03-29T07:49:44;99089.34;;;16.18;63.60
42105;BME280;70664;51.472;5.712;2024-03-29T07:52:11;99091.09;;;16.18;63.28
42105;BME280;70664;51.472;5.712;2024-03-29T07:54:36;99077.31;;;16.17;63.30
42105;BME280;70664;51.472;5.712;2024-03-29T07:57:03;99073.81;;;16.18;63.41
42105;BME280;70664;51.472;5.712;2024-03-29T07:59:29;99067.84;;;16.16;63.28
42105;BME280;70664;51.472;5.712;2024-03-29T08:01:55;99067.84;;;16.16;63.43
42105;BME280;70664;51.472;5.712;2024-03-29T08:04:21;99064.44;;;16.16;63.24
42105;BME280;70664;51.472;5.712;2024-03-29T08:06:47;99067.94;;;16.15;63.28
42105;BME280;70664;51.472;5.712;2024-03-29T08:09:13;99056.72;;;16.14;63.52
42105;BME280;70664;51.472;5.712;2024-03-29T08:11:41;99062.75;;;16.15;63.74
42105;BME280;70664;51.472;5.712;2024-03-29T08:14:07;99061.91;;;16.14;63.41
42105;BME280;70664;51.472;5.712;2024-03-29T08:16:34;99055.03;;;16.13;63.62
42105;BME280;70664;51.472;5.712;2024-03-29T08:18:59;99055.94;;;16.12;63.52
42105;BME280;70664;51.472;5.712;2024-03-29T08:21:25;99062.75;;;16.15;63.52
42105;BME280;70664;51.472;5.712;2024-03-29T08:23:55;99057.63;;;16.13;63.61
42105;BME280;70664;51.472;5.712;2024-03-29T08:26:22;99060.22;;;16.13;64.08
42105;BME280;70664;51.472;5.712;2024-03-29T08:28:48;99063.66;;;16.14;63.83
42105;BME280;70664;51.472;5.712;2024-03-29T08:31:15;99072.34;;;16.13;63.76
42105;BME280;70664;51.472;5.712;2024-03-29T08:33:41;99082.63;;;16.14;63.65
42105;BME280;70664;51.472;5.712;2024-03-29T08:36:09;99085.22;;;16.14;63.88
42105;BME280;70664;51.472;5.712;2024-03-29T08:38:37;99095.59;;;16.14;63.75
42105;BME280;70664;51.472;5.712;2024-03-29T08:41:06;99092.19;;;16.14;64.06
42105;BME280;70664;51.472;5.712;2024-03-29T08:43:33;99091.31;;;16.13;63.94
42105;BME280;70664;51.472;5.712;2024-03-29T08:45:59;99078.44;;;16.12;64.27
42105;BME280;70664;51.472;5.712;2024-03-29T08:48:27;99073.25;;;16.12;64.29
42105;BME280;70664;51.472;5.712;2024-03-29T08:50:53;99066.41;;;16.11;64.47
42105;BME280;70664;51.472;5.712;2024-03-29T08:53:19;99097.50;;;16.11;63.96
42105;BME280;70664;51.472;5.712;2024-03-29T08:55:46;99102.59;;;16.12;64.11
42105;BME280;70664;51.472;5.712;2024-03-29T08:58:14;99100.94;;;16.11;64.49
42105;BME280;70664;51.472;5.712;2024-03-29T09:00:40;99092.31;;;16.11;64.17
42105;BME280;70664;51.472;5.712;2024-03-29T09:03:05;99100.94;;;16.11;64.18
42105;BME280;70664;51.472;5.712;2024-03-29T09:05:31;99098.34;;;16.11;64.25
42105;BME280;70664;51.472;5.712;2024-03-29T09:07:57;99100.94;;;16.11;64.55
42105;BME280;70664;51.472;5.712;2024-03-29T09:10:24;99100.09;;;16.11;64.41
42105;BME280;70664;51.472;5.712;2024-03-29T09:12:53;99100.09;;;16.11;64.32
42105;BME280;70664;51.472;5.712;2024-03-29T09:15:19;99111.28;;;16.11;64.64
42105;BME280;70664;51.472;5.712;2024-03-29T09:17:46;99110.47;;;16.11;64.55
42105;BME280;70664;51.472;5.712;2024-03-29T09:20:12;99113.06;;;16.11;64.47
42105;BME280;70664;51.472;5.712;2024-03-29T09:22:38;99114.75;;;16.12;64.10
42105;BME280;70664;51.472;5.712;2024-03-29T09:25:05;99119.97;;;16.10;64.35
42105;BME280;70664;51.472;5.712;2024-03-29T09:27:31;99113.06;;;16.11;64.26
42105;BME280;70664;51.472;5.712;2024-03-29T09:30:03;99107.03;;;16.10;64.47
42105;BME280;70664;51.472;5.712;2024-03-29T09:32:31;99107.03;;;16.10;64.19
42105;BME280;70664;51.472;5.712;2024-03-29T09:34:57;99113.97;;;16.10;64.48
42105;BME280;70664;51.472;5.712;2024-03-29T09:37:23;99112.91;;;16.14;64.32
42105;BME280;70664;51.472;5.712;2024-03-29T09:39:49;99137.84;;;16.16;64.39
42105;BME280;70664;51.472;5.712;2024-03-29T09:42:16;99142.91;;;16.20;64.58
42105;BME280;70664;51.472;5.712;2024-03-29T09:44:44;99148.84;;;16.22;64.46
42105;BME280;70664;51.472;5.712;2024-03-29T09:47:15;99163.34;;;16.26;64.21
42105;BME280;70664;51.472;5.712;2024-03-29T09:49:42;99151.94;;;16.30;64.03
42105;BME280;70664;51.472;5.712;2024-03-29T09:52:10;99159.84;;;16.27;64.11
42105;BME280;70664;51.472;5.712;2024-03-29T09:54:37;99162.34;;;16.28;64.41
42105;BME280;70664;51.472;5.712;2024-03-29T09:57:05;99158.84;;;16.29;64.51
42105;BME280;70664;51.472;5.712;2024-03-29T09:59:30;99171.81;;;16.29;64.41
42105;BME280;70664;51.472;5.712;2024-03-29T10:01:57;99171.72;;;16.31;64.36
42105;BME280;70664;51.472;5.712;2024-03-29T10:04:24;99164.72;;;16.33;64.44
42105;BME280;70664;51.472;5.712;2024-03-29T10:06:51;99174.19;;;16.34;64.59
42105;BME280;70664;51.472;5.712;2024-03-29T10:09:22;99172.34;;;16.36;64.29
42105;BME280;70664;51.472;5.712;2024-03-29T10:11:48;99168.84;;;16.37;64.39
42105;BME280;70664;51.472;5.712;2024-03-29T10:14:14;99150.84;;;16.34;64.70
42105;BME280;70664;51.472;5.712;2024-03-29T10:16:40;99148.38;;;16.31;64.60
42105;BME280;70664;51.472;5.712;2024-03-29T10:19:07;99147.44;;;16.33;64.72
42105;BME280;70664;51.472;5.712;2024-03-29T10:21:33;99146.66;;;16.31;64.73
42105;BME280;70664;51.472;5.712;2024-03-29T10:24:14;99138.78;;;16.33;64.70
42105;BME280;70664;51.472;5.712;2024-03-29T10:26:42;99138.78;;;16.33;64.55
42105;BME280;70664;51.472;5.712;2024-03-29T10:29:08;99149.16;;;16.33;64.79
42105;BME280;70664;51.472;5.712;2024-03-29T10:31:35;99150.00;;;16.33;64.71
42105;BME280;70664;51.472;5.712;2024-03-29T10:34:05;99139.66;;;16.33;64.70
42105;BME280;70664;51.472;5.712;2024-03-29T10:36:32;99155.19;;;16.33;65.07
42105;BME280;70664;51.472;5.712;2024-03-29T10:39:04;99152.53;;;16.35;64.91
42105;BME280;70664;51.472;5.712;2024-03-29T10:41:40;99152.66;;;16.32;65.87
42105;BME280;70664;51.472;5.712;2024-03-29T10:44:10;99155.25;;;16.32;65.45
42105;BME280;70664;51.472;5.712;2024-03-29T10:46:37;99144.06;;;16.31;66.51
42105;BME280;70664;51.472;5.712;2024-03-29T10:49:10;99160.53;;;16.30;66.58
42105;BME280;70664;51.472;5.712;2024-03-29T10:51:41;99172.44;;;16.35;67.08
42105;BME280;70664;51.472;5.712;2024-03-29T10:54:13;99182.09;;;16.31;67.58
42105;BME280;70664;51.472;5.712;2024-03-29T10:56:40;99175.81;;;16.37;68.01
42105;BME280;70664;51.472;5.712;2024-03-29T10:59:53;99181.06;;;16.35;68.27
42105;BME280;70664;51.472;5.712;2024-03-29T11:05:13;99191.50;;;16.33;69.10
42105;BME280;70664;51.472;5.712;2024-03-29T11:07:42;99184.78;;;16.29;68.89
42105;BME280;70664;51.472;5.712;2024-03-29T11:10:42;99196.94;;;16.29;69.35
42105;BME280;70664;51.472;5.712;2024-03-29T11:13:53;99191.66;;;16.30;69.25
42105;BME280;70664;51.472;5.712;2024-03-29T11:16:19;99166.63;;;16.29;68.40
42105;BME280;70664;51.472;5.712;2024-03-29T11:18:47;99145.88;;;16.29;68.53
42105;BME280;70664;51.472;5.712;2024-03-29T11:21:15;99131.19;;;16.30;68.36
42105;BME280;70664;51.472;5.712;2024-03-29T11:23:52;99143.22;;;16.31;68.08
42105;BME280;70664;51.472;5.712;2024-03-29T11:26:18;99156.94;;;16.33;68.26
42105;BME280;70664;51.472;5.712;2024-03-29T11:28:52;99173.34;;;16.33;68.30
42105;BME280;70664;51.472;5.712;2024-03-29T11:31:25;99167.19;;;16.36;68.49
42105;BME280;70664;51.472;5.712;2024-03-29T11:33:51;99174.03;;;16.37;68.42
42105;BME280;70664;51.472;5.712;2024-03-29T11:36:30;99188.78;;;16.37;68.65
42105;BME280;70664;51.472;5.712;2024-03-29T11:38:58;99194.94;;;16.34;68.31
42105;BME280;70664;51.472;5.712;2024-03-29T11:41:26;99184.56;;;16.34;68.41
42105;BME280;70664;51.472;5.712;2024-03-29T11:43:53;99189.06;;;16.30;68.26
42105;BME280;70664;51.472;5.712;2024-03-29T11:46:20;99178.59;;;16.32;68.07
42105;BME280;70664;51.472;5.712;2024-03-29T11:48:47;99189.75;;;16.34;68.14
42105;BME280;70664;51.472;5.712;2024-03-29T11:51:19;99194.94;;;16.34;68.49
42105;BME280;70664;51.472;5.712;2024-03-29T11:53:48;99192.28;;;16.36;68.50
42105;BME280;70664;51.472;5.712;2024-03-29T11:56:14;99198.28;;;16.36;68.70
42105;BME280;70664;51.472;5.712;2024-03-29T11:58:40;99204.34;;;16.37;69.04
42105;BME280;70664;51.472;5.712;2024-03-29T12:01:07;99212.91;;;16.39;68.94
42105;BME280;70664;51.472;5.712;2024-03-29T12:03:40;99219.75;;;16.40;68.86
42105;BME280;70664;51.472;5.712;2024-03-29T12:06:07;99223.25;;;16.39;68.76
42105;BME280;70664;51.472;5.712;2024-03-29T12:08:43;99216.13;;;16.44;68.39
42105;BME280;70664;51.472;5.712;2024-03-29T12:11:09;99209.94;;;16.46;68.39
42105;BME280;70664;51.472;5.712;2024-03-29T12:13:36;99208.34;;;16.44;68.55
42105;BME280;70664;51.472;5.712;2024-03-29T12:16:02;99200.59;;;16.42;68.58
42105;BME280;70664;51.472;5.712;2024-03-29T12:18:29;99208.34;;;16.44;69.05
42105;BME280;70664;51.472;5.712;2024-03-29T12:20:57;99212.75;;;16.42;68.87
42105;BME280;70664;51.472;5.712;2024-03-29T12:23:23;99202.44;;;16.40;68.62
42105;BME280;70664;51.472;5.712;2024-03-29T12:25:53;99209.38;;;16.40;68.84
42105;BME280;70664;51.472;5.712;2024-03-29T12:28:21;99205.13;;;16.39;68.69
42105;BME280;70664;51.472;5.712;2024-03-29T12:30:48;99212.75;;;16.42;68.93
42105;BME280;70664;51.472;5.712;2024-03-29T12:33:17;99207.25;;;16.48;68.66
42105;BME280;70664;51.472;5.712;2024-03-29T12:35:47;99215.25;;;16.43;69.72
42105;BME280;70664;51.472;5.712;2024-03-29T12:38:16;99215.69;;;16.34;65.18
42105;BME280;70664;51.472;5.712;2024-03-29T12:40:44;99222.69;;;16.32;65.31
42105;BME280;70664;51.472;5.712;2024-03-29T12:43:14;99218.09;;;16.39;67.59
42105;BME280;70664;51.472;5.712;2024-03-29T12:45:41;99215.69;;;16.34;65.52
42105;BME280;70664;51.472;5.712;2024-03-29T12:48:19;99209.03;;;16.28;63.57
42105;BME280;70664;51.472;5.712;2024-03-29T12:50:46;99219.63;;;16.24;61.39
42105;BME280;70664;51.472;5.712;2024-03-29T12:53:14;99218.72;;;16.25;61.48
42105;BME280;70664;51.472;5.712;2024-03-29T12:55:46;99215.28;;;16.24;62.64
42105;BME280;70664;51.472;5.712;2024-03-29T12:58:17;99215.28;;;16.24;62.75
42105;BME280;70664;51.472;5.712;2024-03-29T13:00:45;99203.16;;;16.25;62.42
42105;BME280;70664;51.472;5.712;2024-03-29T13:03:11;99197.22;;;16.23;62.55
42105;BME280;70664;51.472;5.712;2024-03-29T13:05:39;99214.44;;;16.24;62.65
42105;BME280;70664;51.472;5.712;2024-03-29T13:08:08;99215.34;;;16.23;62.44